Marshes Siding, Kentucky
Current Conditions -  °F | °C
As of 6:56 AM on Sunday 23 Nov 2014 (Local Time) from KEKQ Reporting Station
Overcast Overcast  
Wind Chill: 57°   Ceiling: 5000
Heat Index: 57°   Visibility: 10mi
Dew Point: 43°   Wind: 7mph
Humidity: 60%   Direction: 90°E
Pressure: 30.02"   Gusts: NA
Location:  36.74°N, 84.48°W
Report Text: KEKQ 231156Z AUTO 09006KT 10SM OVC050 14/06 A3002 RMK AO2 56020 T01380061 10144 20100 SLP167
Loading
Personal Weather Stations






























Interactive Weather Map New forecast layout! Learn more

10-Day Weather Forecast

Advertisements
Track Severe Weather on mobile